createdAt,value
2019-03-16T00:00:58.751Z,1.30
2019-03-16T00:03:27.555Z,1.10
2019-03-16T00:05:56.342Z,1.20
2019-03-16T00:08:25.486Z,1.27
2019-03-16T00:10:54.288Z,1.30
2019-03-16T00:13:23.073Z,1.50
2019-03-16T00:15:51.866Z,1.30
2019-03-16T00:18:20.926Z,1.23
2019-03-16T00:20:49.715Z,1.20
2019-03-16T00:23:18.567Z,1.40
2019-03-16T00:25:47.361Z,1.30
2019-03-16T00:28:16.143Z,1.30
2019-03-16T00:30:45.272Z,1.37
2019-03-16T00:33:14.253Z,1.50
2019-03-16T00:35:43.255Z,1.50
2019-03-16T00:38:12.980Z,1.23
2019-03-16T00:40:41.861Z,1.30
2019-03-16T00:43:11.704Z,1.20
2019-03-16T00:45:40.501Z,1.30
2019-03-16T00:48:09.757Z,1.23
2019-03-16T00:50:38.661Z,1.20
2019-03-16T00:53:07.461Z,1.20
2019-03-16T00:55:36.365Z,1.27
2019-03-16T00:58:05.445Z,1.60
2019-03-16T01:00:34.457Z,1.10
2019-03-16T01:03:03.688Z,1.30
2019-03-16T01:05:32.616Z,1.40
2019-03-16T01:08:02.111Z,1.20
2019-03-16T01:10:30.973Z,1.20
2019-03-16T01:13:00.316Z,1.33
2019-03-16T01:15:29.104Z,1.20
2019-03-16T01:17:57.985Z,1.20
2019-03-16T01:20:26.864Z,1.20
2019-03-16T01:22:55.687Z,1.20
2019-03-16T01:25:24.577Z,1.20
2019-03-16T01:27:53.528Z,1.10
2019-03-16T01:30:22.537Z,1.20
2019-03-16T01:32:51.492Z,1.27
2019-03-16T01:35:20.389Z,1.20
2019-03-16T01:37:49.214Z,1.23
2019-03-16T01:40:18.178Z,1.20
2019-03-16T01:42:46.998Z,1.30
2019-03-16T01:45:16.174Z,1.10
2019-03-16T01:47:45.272Z,1.27
2019-03-16T01:50:14.580Z,1.10
2019-03-16T01:52:43.369Z,1.10
2019-03-16T01:55:12.349Z,1.23
2019-03-16T01:57:41.445Z,1.10
2019-03-16T02:00:11.983Z,1.13
2019-03-16T02:02:54.475Z,2.07
2019-03-16T02:05:12.118Z,1.20
2019-03-16T02:07:41.108Z,1.30
2019-03-16T02:10:10.205Z,1.20
2019-03-16T02:12:39.114Z,1.20
2019-03-16T02:15:08.102Z,1.10
2019-03-16T02:17:36.993Z,1.20
2019-03-16T02:20:05.959Z,1.10
2019-03-16T02:22:34.881Z,1.20
2019-03-16T02:25:03.875Z,1.30
2019-03-16T02:27:32.750Z,1.10
2019-03-16T02:30:01.646Z,1.10
2019-03-16T02:32:30.427Z,1.10
2019-03-16T02:34:59.220Z,1.10
2019-03-16T02:37:28.001Z,1.07
2019-03-16T02:39:56.939Z,1.60
2019-03-16T02:42:25.878Z,1.30
2019-03-16T02:44:54.675Z,1.30
2019-03-16T02:47:23.566Z,1.30
2019-03-16T02:49:52.370Z,1.20
2019-03-16T02:52:21.145Z,1.30
2019-03-16T02:54:49.949Z,1.27
2019-03-16T02:57:18.817Z,1.33
2019-03-16T02:59:47.615Z,1.20
2019-03-16T03:02:16.776Z,1.30
2019-03-16T03:04:46.859Z,1.20
2019-03-16T03:07:15.803Z,1.30
2019-03-16T03:09:44.653Z,1.20
2019-03-16T03:12:13.478Z,1.23
2019-03-16T03:14:42.396Z,1.30
2019-03-16T03:17:11.284Z,1.17
2019-03-16T03:19:40.494Z,1.20
2019-03-16T03:22:09.382Z,1.10
2019-03-16T03:24:38.248Z,1.20
2019-03-16T03:27:07.652Z,1.10
2019-03-16T03:29:36.441Z,1.10
2019-03-16T03:32:05.437Z,1.20
2019-03-16T03:34:34.312Z,1.20
2019-03-16T03:37:03.125Z,1.30
2019-03-16T03:39:32.004Z,1.33
2019-03-16T03:42:01.149Z,1.23
2019-03-16T03:44:30.046Z,1.20
2019-03-16T03:46:58.830Z,1.10
2019-03-16T03:49:27.627Z,1.10
2019-03-16T03:51:56.505Z,1.70
2019-03-16T03:54:25.493Z,1.30
2019-03-16T03:56:54.451Z,1.20
2019-03-16T03:59:23.347Z,1.23
2019-03-16T04:01:52.277Z,1.20
2019-03-16T04:04:21.261Z,1.20
2019-03-16T04:06:50.225Z,1.13
2019-03-16T04:09:19.143Z,1.10
2019-03-16T04:11:48.138Z,1.30
2019-03-16T04:14:16.955Z,1.30
2019-03-16T04:16:45.794Z,1.20
2019-03-16T04:19:14.646Z,1.73
2019-03-16T04:21:43.461Z,1.30
2019-03-16T04:24:12.617Z,1.20
2019-03-16T04:26:41.740Z,1.10
2019-03-16T04:29:11.035Z,1.40
2019-03-16T04:31:39.899Z,1.10
2019-03-16T04:34:09.060Z,1.20
2019-03-16T04:36:38.273Z,1.40
2019-03-16T04:39:07.852Z,1.77
2019-03-16T04:41:36.734Z,1.13
2019-03-16T04:44:05.609Z,1.20
2019-03-16T04:46:34.752Z,1.30
2019-03-16T04:49:03.923Z,1.30
2019-03-16T04:51:32.756Z,1.50
2019-03-16T04:54:01.538Z,1.20
2019-03-16T04:56:30.353Z,1.40
2019-03-16T04:58:59.210Z,1.20
2019-03-16T05:01:27.988Z,1.47
2019-03-16T05:03:57.400Z,1.40
2019-03-16T05:06:26.281Z,1.50
2019-03-16T05:08:55.378Z,1.53
2019-03-16T05:11:24.288Z,1.47
2019-03-16T05:13:53.139Z,1.20
2019-03-16T05:16:21.969Z,1.30
2019-03-16T05:18:51.164Z,1.20
2019-03-16T05:21:19.947Z,1.40
2019-03-16T05:23:48.757Z,1.20
2019-03-16T05:26:17.917Z,1.20
2019-03-16T05:28:46.719Z,1.30
2019-03-16T05:31:16.229Z,1.33
2019-03-16T05:33:45.049Z,1.10
2019-03-16T05:36:13.932Z,1.10
2019-03-16T05:38:42.862Z,1.43
2019-03-16T05:41:11.665Z,1.37
2019-03-16T05:43:40.484Z,1.20
2019-03-16T05:46:09.269Z,1.30
2019-03-16T05:48:38.134Z,1.80
2019-03-16T05:51:06.924Z,1.27
2019-03-16T05:53:35.734Z,1.20
2019-03-16T05:56:04.661Z,1.70
2019-03-16T05:58:33.512Z,1.53
2019-03-16T06:01:02.313Z,1.87
2019-03-16T06:03:31.153Z,1.30
2019-03-16T06:06:00.040Z,1.27
2019-03-16T06:08:28.854Z,1.20
2019-03-16T06:10:57.719Z,1.50
2019-03-16T06:13:26.534Z,1.50
2019-03-16T06:15:55.337Z,1.20
2019-03-16T06:18:24.149Z,1.63
2019-03-16T06:20:52.943Z,1.37
2019-03-16T06:23:23.423Z,1.40
2019-03-16T06:25:52.743Z,1.50
2019-03-16T06:28:21.669Z,1.20
2019-03-16T06:30:50.437Z,1.30
2019-03-16T06:33:19.229Z,7.83
2019-03-16T06:35:48.662Z,1.50
2019-03-16T06:38:17.524Z,1.60
2019-03-16T06:40:46.296Z,1.60
2019-03-16T06:43:15.104Z,1.43
2019-03-16T06:45:44.323Z,1.40
2019-03-16T06:48:13.154Z,1.50
2019-03-16T06:50:42.014Z,1.77
2019-03-16T06:53:11.198Z,2.50
2019-03-16T06:55:40.001Z,1.80
2019-03-16T06:58:08.941Z,1.67
2019-03-16T07:00:37.764Z,1.40
2019-03-16T07:03:06.567Z,2.03
2019-03-16T07:05:38.785Z,1.57
2019-03-16T07:08:05.942Z,1.70
2019-03-16T07:10:34.841Z,1.70
2019-03-16T07:13:03.642Z,1.60
2019-03-16T07:15:32.428Z,1.60
2019-03-16T07:18:01.539Z,1.40
2019-03-16T07:20:30.416Z,1.33
2019-03-16T07:22:59.204Z,1.33
2019-03-16T07:25:28.013Z,1.50
2019-03-16T07:27:56.804Z,1.73
2019-03-16T07:30:25.578Z,1.97
2019-03-16T07:32:54.445Z,1.90
2019-03-16T07:35:23.321Z,2.23
2019-03-16T07:37:52.498Z,2.00
2019-03-16T07:40:21.608Z,1.70
2019-03-16T07:42:50.446Z,1.77
2019-03-16T07:45:19.249Z,1.90
2019-03-16T07:47:48.209Z,2.00
2019-03-16T07:50:17.641Z,1.57
2019-03-16T07:52:47.221Z,1.60
2019-03-16T07:55:16.433Z,1.63
2019-03-16T07:57:45.369Z,1.33
2019-03-16T08:00:14.369Z,1.57
2019-03-16T08:02:43.308Z,1.70
2019-03-16T08:05:19.372Z,1.77
2019-03-16T08:07:46.232Z,2.37
2019-03-16T08:10:15.170Z,1.93
2019-03-16T08:12:43.984Z,1.83
2019-03-16T08:15:12.966Z,1.50
2019-03-16T08:17:41.879Z,1.70
2019-03-16T08:20:11.534Z,1.63
2019-03-16T08:22:40.805Z,1.77
2019-03-16T08:25:09.966Z,1.60
2019-03-16T08:27:39.189Z,1.37
2019-03-16T08:30:08.790Z,1.73
2019-03-16T08:32:37.745Z,2.20
2019-03-16T08:35:06.810Z,1.53
2019-03-16T08:37:36.126Z,1.40
2019-03-16T08:40:05.727Z,2.27
2019-03-16T08:42:35.313Z,1.40
2019-03-16T08:45:05.102Z,1.70
2019-03-16T08:47:33.996Z,1.60
2019-03-16T08:50:03.302Z,1.60
2019-03-16T08:52:32.246Z,1.47
2019-03-16T08:55:01.038Z,1.90
2019-03-16T08:57:29.990Z,1.60
2019-03-16T08:59:58.833Z,1.70
2019-03-16T09:02:27.689Z,1.40
2019-03-16T09:04:56.482Z,1.27
2019-03-16T09:07:25.424Z,1.60
2019-03-16T09:09:54.306Z,1.73
2019-03-16T09:12:23.095Z,2.03
2019-03-16T09:14:51.882Z,1.60
2019-03-16T09:17:20.664Z,1.20
2019-03-16T09:19:49.788Z,1.60
2019-03-16T09:22:18.974Z,1.40
2019-03-16T09:24:47.740Z,1.47
2019-03-16T09:27:17.201Z,1.50
2019-03-16T09:29:45.989Z,1.50
2019-03-16T09:32:15.161Z,1.47
2019-03-16T09:34:43.949Z,1.40
2019-03-16T09:37:12.761Z,1.40
2019-03-16T09:39:41.562Z,1.73
2019-03-16T09:42:10.358Z,1.33
2019-03-16T09:44:39.516Z,1.40
2019-03-16T09:47:08.305Z,1.40
2019-03-16T09:49:37.490Z,1.43
2019-03-16T09:52:06.355Z,1.53
2019-03-16T09:54:35.143Z,1.30
2019-03-16T09:57:04.016Z,1.60
2019-03-16T09:59:33.085Z,1.43
2019-03-16T10:02:01.952Z,1.97
2019-03-16T10:04:30.749Z,1.50
2019-03-16T10:06:59.536Z,1.50
2019-03-16T10:09:28.535Z,1.40
2019-03-16T10:11:57.343Z,1.60
2019-03-16T10:14:26.506Z,1.60
2019-03-16T10:16:55.893Z,1.33
2019-03-16T10:19:24.903Z,1.30
2019-03-16T10:21:53.793Z,1.50
2019-03-16T10:24:22.582Z,1.50
2019-03-16T10:26:51.746Z,1.20
2019-03-16T10:29:20.529Z,1.50
2019-03-16T10:31:49.333Z,1.20
2019-03-16T10:34:18.442Z,1.40
2019-03-16T10:36:47.272Z,2.10
2019-03-16T10:39:16.132Z,1.37
2019-03-16T10:41:44.929Z,1.40
2019-03-16T10:44:13.734Z,1.40
2019-03-16T10:46:42.521Z,1.40
2019-03-16T10:49:11.387Z,1.37
2019-03-16T10:51:40.270Z,1.77
2019-03-16T10:54:09.065Z,1.50
2019-03-16T10:56:38.453Z,1.50
2019-03-16T10:59:07.548Z,1.50
2019-03-16T11:01:36.410Z,1.10
2019-03-16T11:04:05.286Z,1.60
2019-03-16T11:06:34.124Z,1.20
2019-03-16T11:09:04.531Z,1.20
2019-03-16T11:11:33.400Z,1.37
2019-03-16T11:14:02.204Z,1.87
2019-03-16T11:16:31.071Z,1.20
2019-03-16T11:19:00.110Z,1.30
2019-03-16T11:21:28.893Z,1.50
2019-03-16T11:23:57.696Z,1.73
2019-03-16T11:26:26.492Z,1.20
2019-03-16T11:28:55.277Z,1.53
2019-03-16T11:31:24.105Z,1.03
2019-03-16T11:33:53.300Z,1.37
2019-03-16T11:36:22.780Z,1.53
2019-03-16T11:38:53.189Z,1.27
2019-03-16T11:41:21.950Z,1.40
2019-03-16T11:43:50.784Z,1.33
2019-03-16T11:46:19.861Z,1.20
2019-03-16T11:48:48.811Z,1.00
2019-03-16T11:51:17.955Z,1.40
2019-03-16T11:53:46.825Z,1.57
2019-03-16T11:56:18.218Z,1.20
2019-03-16T11:58:46.569Z,1.40
2019-03-16T12:01:15.657Z,1.30
2019-03-16T12:03:44.449Z,1.50
2019-03-16T12:06:13.205Z,1.20
2019-03-16T12:08:42.240Z,1.50
2019-03-16T12:11:12.365Z,1.33
2019-03-16T12:13:43.811Z,1.10
2019-03-16T12:16:11.973Z,1.50
2019-03-16T12:18:41.360Z,1.20
2019-03-16T12:21:10.215Z,1.23
2019-03-16T12:23:39.104Z,1.30
2019-03-16T12:26:07.970Z,1.73
2019-03-16T12:28:36.760Z,1.10
2019-03-16T12:31:05.539Z,1.10
2019-03-16T12:33:35.230Z,1.33
2019-03-16T12:36:04.245Z,1.40
2019-03-16T12:38:33.042Z,1.10
2019-03-16T12:41:01.902Z,1.20
2019-03-16T12:43:30.797Z,1.70
2019-03-16T12:45:59.636Z,1.20
2019-03-16T12:48:28.468Z,1.30
2019-03-16T12:50:57.350Z,1.10
2019-03-16T12:53:26.129Z,1.20
2019-03-16T12:55:54.908Z,1.37
2019-03-16T12:58:23.704Z,1.60
2019-03-16T13:00:52.480Z,1.20
2019-03-16T13:03:21.914Z,1.80
2019-03-16T13:05:51.017Z,1.20
2019-03-16T13:08:19.800Z,1.23
2019-03-16T13:10:48.592Z,1.20
2019-03-16T13:13:17.385Z,1.30
2019-03-16T13:15:46.164Z,1.20
2019-03-16T13:18:14.986Z,1.20
2019-03-16T13:20:44.176Z,1.40
2019-03-16T13:23:12.960Z,1.30
2019-03-16T13:25:41.729Z,1.10
2019-03-16T13:28:10.867Z,1.50
2019-03-16T13:30:39.625Z,1.17
2019-03-16T13:33:08.409Z,1.43
2019-03-16T13:35:37.176Z,1.30
2019-03-16T13:38:06.081Z,1.43
2019-03-16T13:40:34.976Z,1.30
2019-03-16T13:43:03.812Z,1.40
2019-03-16T13:45:33.028Z,1.10
2019-03-16T13:48:02.177Z,1.40
2019-03-16T13:50:30.963Z,1.60
2019-03-16T13:56:56.684Z,1.90
2019-03-16T13:59:25.535Z,1.50
2019-03-16T14:01:54.768Z,1.93
2019-03-16T14:04:23.580Z,1.00
2019-03-16T14:06:52.353Z,1.90
2019-03-16T14:09:21.227Z,1.40
2019-03-16T14:11:50.683Z,1.27
2019-03-16T14:14:19.828Z,1.20
2019-03-16T14:16:48.947Z,1.60
2019-03-16T14:19:18.031Z,1.37
2019-03-16T14:21:46.911Z,1.50
2019-03-16T14:24:16.149Z,1.33
2019-03-16T14:26:44.955Z,1.70
2019-03-16T14:29:14.506Z,1.70
2019-03-16T14:31:43.709Z,1.20
2019-03-16T14:34:12.805Z,1.37
2019-03-16T14:36:42.205Z,1.20
2019-03-16T14:39:11.038Z,1.23
2019-03-16T14:41:39.822Z,1.60
2019-03-16T14:44:08.890Z,1.30
2019-03-16T14:46:37.973Z,2.00
2019-03-16T14:49:07.400Z,1.30
2019-03-16T14:51:36.978Z,1.40
2019-03-16T14:54:06.079Z,1.50
2019-03-16T14:56:35.289Z,1.40
2019-03-16T14:59:04.176Z,1.63
2019-03-16T15:01:32.972Z,1.20
2019-03-16T15:04:02.256Z,1.20
2019-03-16T15:06:31.364Z,1.30
2019-03-16T15:09:00.169Z,1.10
2019-03-16T15:11:30.888Z,1.20
2019-03-16T15:14:00.897Z,1.50
2019-03-16T15:16:29.688Z,1.20
2019-03-16T15:18:59.594Z,1.60
2019-03-16T15:21:28.713Z,2.03
2019-03-16T15:23:57.569Z,1.60
2019-03-16T15:26:27.714Z,1.53
2019-03-16T15:28:56.629Z,1.50
2019-03-16T15:31:25.877Z,1.40
2019-03-16T15:33:54.677Z,1.30
2019-03-16T15:36:23.551Z,1.20
2019-03-16T15:38:53.184Z,1.77
2019-03-16T15:41:22.439Z,1.40
2019-03-16T15:44:10.436Z,1.63
2019-03-16T15:46:39.210Z,1.90
2019-03-16T15:49:08.071Z,1.80
2019-03-16T15:51:37.313Z,1.50
2019-03-16T15:54:06.624Z,1.50
2019-03-16T15:56:35.485Z,1.40
2019-03-16T15:59:04.481Z,1.50
2019-03-16T16:01:33.362Z,1.23
2019-03-16T16:04:02.499Z,1.30
2019-03-16T16:06:31.397Z,1.10
2019-03-16T16:09:01.410Z,1.30
2019-03-16T16:11:30.912Z,1.40
2019-03-16T16:14:03.068Z,1.40
2019-03-16T16:16:31.844Z,1.20
2019-03-16T16:19:00.936Z,1.30
2019-03-16T16:21:29.749Z,1.43
2019-03-16T16:23:58.810Z,1.23
2019-03-16T16:26:28.604Z,1.30
2019-03-16T16:28:57.478Z,1.37
2019-03-16T16:31:26.307Z,1.60
2019-03-16T16:33:55.094Z,1.30
2019-03-16T16:36:23.909Z,1.30
2019-03-16T16:38:52.697Z,1.30
2019-03-16T16:41:21.545Z,1.20
2019-03-16T16:43:50.434Z,1.50
2019-03-16T16:46:19.461Z,1.50
2019-03-16T16:48:48.584Z,1.37
2019-03-16T16:51:17.416Z,1.20
2019-03-16T16:53:46.232Z,1.40
2019-03-16T16:56:15.054Z,1.23
2019-03-16T16:58:44.112Z,1.60
2019-03-16T17:01:12.935Z,1.20
2019-03-16T17:03:42.604Z,1.50
2019-03-16T17:06:11.613Z,1.50
2019-03-16T17:08:40.514Z,1.63
2019-03-16T17:11:14.727Z,1.50
2019-03-16T17:13:43.515Z,1.90
2019-03-16T17:16:12.320Z,1.60
2019-03-16T17:18:41.115Z,1.23
2019-03-16T17:21:10.295Z,1.77
2019-03-16T17:23:39.470Z,1.67
2019-03-16T17:26:08.297Z,1.50
2019-03-16T17:28:37.144Z,1.50
2019-03-16T17:31:09.643Z,1.50
2019-03-16T17:33:38.476Z,1.67
2019-03-16T17:36:07.479Z,2.00
2019-03-16T17:38:36.624Z,2.17
2019-03-16T17:41:05.781Z,1.63
2019-03-16T17:43:34.976Z,2.20
2019-03-16T17:46:04.107Z,1.50
2019-03-16T17:48:32.883Z,1.93
2019-03-16T17:51:02.197Z,1.70
2019-03-16T17:53:31.287Z,2.20
2019-03-16T17:56:02.325Z,1.90
2019-03-16T17:58:50.328Z,1.60
2019-03-16T18:01:19.586Z,1.70
2019-03-16T18:03:48.390Z,1.70
2019-03-16T18:06:17.204Z,1.50
2019-03-16T18:08:46.610Z,1.90
2019-03-16T18:11:16.024Z,2.07
2019-03-16T18:13:44.796Z,2.57
2019-03-16T18:16:13.822Z,2.80
2019-03-16T18:18:42.624Z,2.17
2019-03-16T18:21:13.049Z,1.80
2019-03-16T18:23:41.826Z,2.23
2019-03-16T18:26:11.002Z,2.30
2019-03-16T18:28:40.068Z,2.03
2019-03-16T18:31:08.872Z,1.90
2019-03-16T18:33:38.093Z,2.53
2019-03-16T18:36:06.952Z,1.77
2019-03-16T18:38:35.716Z,2.30
2019-03-16T18:41:04.705Z,2.53
2019-03-16T18:43:33.764Z,1.90
2019-03-16T18:46:02.624Z,1.80
2019-03-16T18:48:32.038Z,2.20
2019-03-16T18:51:01.135Z,2.37
2019-03-16T18:53:30.225Z,1.77
2019-03-16T18:55:59.085Z,1.70
2019-03-16T18:58:37.263Z,1.90
2019-03-16T19:00:58.368Z,2.17
2019-03-16T19:03:27.436Z,1.90
2019-03-16T19:05:56.526Z,2.30
2019-03-16T19:08:25.369Z,2.37
2019-03-16T19:10:54.241Z,2.13
2019-03-16T19:13:23.302Z,2.73
2019-03-16T19:15:52.451Z,2.30
2019-03-16T19:18:21.498Z,2.00
2019-03-16T19:20:50.345Z,2.57
2019-03-16T19:23:19.387Z,2.77
2019-03-16T19:25:48.570Z,2.73
2019-03-16T19:28:18.536Z,2.30
2019-03-16T19:30:47.814Z,2.53
2019-03-16T19:33:16.705Z,2.20
2019-03-16T19:35:45.555Z,2.00
2019-03-16T19:38:14.357Z,2.00
2019-03-16T19:40:43.605Z,2.00
2019-03-16T19:43:12.453Z,2.03
2019-03-16T19:45:41.273Z,2.00
2019-03-16T19:48:10.092Z,2.00
2019-03-16T19:50:38.873Z,1.60
2019-03-16T19:53:07.660Z,1.60
2019-03-16T19:55:36.507Z,2.03
2019-03-16T19:58:05.376Z,2.07
2019-03-16T20:00:34.285Z,2.17
2019-03-16T20:03:03.064Z,1.80
2019-03-16T20:05:31.835Z,2.10
2019-03-16T20:08:00.608Z,1.87
2019-03-16T20:10:29.821Z,2.20
2019-03-16T20:12:58.760Z,2.07
2019-03-16T20:15:27.543Z,2.63
2019-03-16T20:17:56.389Z,2.53
2019-03-16T20:20:25.293Z,2.40
2019-03-16T20:22:54.100Z,2.93
2019-03-16T20:25:22.870Z,2.17
2019-03-16T20:27:51.678Z,2.70
2019-03-16T20:30:26.398Z,2.47
2019-03-16T20:33:03.498Z,2.23
2019-03-16T20:35:21.672Z,2.20
2019-03-16T20:37:50.491Z,2.57
2019-03-16T20:40:19.332Z,2.70
2019-03-16T20:42:48.116Z,2.70
2019-03-16T20:45:17.079Z,2.30
2019-03-16T20:47:45.998Z,2.83
2019-03-16T20:50:15.257Z,3.30
2019-03-16T20:52:44.183Z,2.40
2019-03-16T20:55:13.101Z,3.33
2019-03-16T20:57:42.337Z,2.87
2019-03-16T21:00:11.461Z,3.20
2019-03-16T21:02:40.312Z,2.80
2019-03-16T21:05:09.405Z,2.20
2019-03-16T21:07:38.193Z,2.27
2019-03-16T21:10:07.514Z,2.40
2019-03-16T21:12:36.377Z,2.73
2019-03-16T21:15:06.517Z,2.63
2019-03-16T21:17:35.307Z,2.40
2019-03-16T21:20:05.144Z,2.70
2019-03-16T21:22:38.552Z,2.30
2019-03-16T21:25:04.809Z,3.43
2019-03-16T21:27:33.577Z,3.73
2019-03-16T21:30:02.376Z,2.90
2019-03-16T21:32:31.274Z,3.23
2019-03-16T21:35:00.168Z,3.27
2019-03-16T21:37:29.456Z,3.30
2019-03-16T21:39:58.262Z,2.40
2019-03-16T21:42:27.039Z,2.63
2019-03-16T21:44:55.825Z,2.50
2019-03-16T21:47:24.662Z,2.67
2019-03-16T21:49:53.445Z,3.10
2019-03-16T21:52:22.240Z,2.67
2019-03-16T21:54:51.064Z,2.77
2019-03-16T21:57:20.000Z,2.77
2019-03-16T21:59:49.019Z,3.70
2019-03-16T22:02:17.778Z,2.60
2019-03-16T22:04:46.560Z,3.10
2019-03-16T22:07:15.408Z,3.47
2019-03-16T22:09:44.264Z,2.73
2019-03-16T22:12:13.042Z,2.63
2019-03-16T22:14:42.146Z,3.37
2019-03-16T22:17:10.929Z,3.40
2019-03-16T22:19:40.030Z,3.33
2019-03-16T22:22:08.811Z,2.87
2019-03-16T22:24:37.949Z,3.30
2019-03-16T22:27:06.752Z,2.90
2019-03-16T22:29:35.612Z,4.13
2019-03-16T22:32:04.386Z,2.60
2019-03-16T22:34:33.189Z,3.23
2019-03-16T22:37:01.957Z,3.17
2019-03-16T22:39:30.728Z,2.90
2019-03-16T22:41:59.601Z,2.47
2019-03-16T22:44:28.409Z,2.77
2019-03-16T22:46:57.268Z,2.70
2019-03-16T22:49:26.421Z,3.27
2019-03-16T22:51:55.361Z,2.63
2019-03-16T22:54:24.511Z,2.80
2019-03-16T22:56:53.437Z,3.40
2019-03-16T22:59:22.408Z,2.60
2019-03-16T23:01:51.205Z,2.57
2019-03-16T23:04:20.054Z,2.80
2019-03-16T23:06:48.873Z,2.60
2019-03-16T23:09:17.943Z,2.63
2019-03-16T23:11:46.721Z,2.33
2019-03-16T23:14:15.565Z,3.10
2019-03-16T23:16:44.381Z,3.20
2019-03-16T23:19:13.845Z,3.10
2019-03-16T23:21:42.625Z,3.10
2019-03-16T23:24:11.408Z,4.20
2019-03-16T23:26:40.208Z,2.87
2019-03-16T23:29:08.973Z,2.40
2019-03-16T23:31:38.063Z,2.80
2019-03-16T23:34:18.317Z,2.60
2019-03-16T23:36:37.457Z,2.50
2019-03-16T23:39:06.675Z,2.70
2019-03-16T23:41:35.548Z,2.10
2019-03-16T23:44:04.398Z,2.33
2019-03-16T23:46:33.264Z,1.90
2019-03-16T23:49:02.332Z,2.47
2019-03-16T23:51:31.180Z,2.60
2019-03-16T23:53:59.980Z,2.60
2019-03-16T23:56:28.756Z,2.20
2019-03-16T23:58:57.520Z,3.30
